Aérodrome :
LOGIN :

S'inscrire | Disclaimer

   EN    FR    IT 

 










Légende :    VFR   VFR Marginal   IFR   IFR Intensif   IFR Très Intensif
Visi : 
Plafond : 
>= 8 km
>= 3000ft
5 à 8 km
1000 à 3000 ft
1500m à 5 km
500 à 1000 ft
800 à 1500m
200 à 500 ft
< 800m
< 200 ft
Symboles :   Orages  Brouillard  Fortes neiges  Fortes précipitations  Vent > 20 kt
SIGMETs :   Divers  Orages  Givrage  Turbulence  Onde Orograph.  Cendres Volcan.






- Altitude de l'aérodrome : 3368 ft


LSGC - Les Eplatures

DERNIER METAR :
  • 270020Z AUTO 23003KT 9999 OVC007 01/01 Q1018 RESN

METARs EXPIRÉS :
  • 262350Z AUTO 22004KT 9999 -SN BKN008 01/01 Q1018 RERASN
  • 262320Z AUTO 23005KT 200V270 9999 -RASN SCT005 BKN007 OVC009 02/01 Q1018 RERA
  • 262250Z AUTO 22006KT 9000 -RA BKN007 BKN009 02/02 Q1018
  • 262220Z AUTO VRB03KT 9999 -RA OVC007 OVC009 02/02 Q1018
  • 262150Z AUTO 24002KT 9999 OVC009 02/02 Q1018

Prévision TAF périmée.



MET'MAP, la Météo Aéronautique d'un coup d'oeil ! - Copyright ORBIFLY Décembre 2007 - Disclaimer

ORBIFLY MET'MAP TEAM :

Programmation & Développement : Alexandra Zaïnal
Sur une idée originale de : Baudouin d'Aumeries
Assistance à la programmation : Marc-Olivier Méhu
Soutien technique & logistique : Manuel Goepfert

Contact : metmap@orbifly.com




SOURCES & CREDITS :

   NOAA